KAOO/AOO METAR and TAF weather

Enter ICAO airport designator
Station Type Date Time Source
KAOO METAR 2021/09/23 23:53 UTC NOAA

KAOO 232353Z AUTO 16004KT 10SM FEW060 11/08 A2998 RMK AO2 RAB33E50 SLP152 P0000 60000 T01060078 10167 20106 51014


Station Type Date Time Source
KAOO Decoded METAR 2021/09/23 23:53 UTC NOAA

ALTOONA-BLAIR COUNTY AIRPORT, PA, United States (KAOO) 40-18N 78-19W 455M
Sep 23, 2021 - 07:53 PM EDT / 2021.09.23 2353 UTC
Wind: from the SSE (160 degrees) at 5 MPH (4 KT):0
Visibility: 10 mile(s):0
Sky conditions: mostly clear
Precipitation last hour: A trace
Temperature: 51.1 F (10.6 C)
Dew Point: 46.0 F (7.8 C)
Relative Humidity: 82%
Pressure (altimeter): 29.98 in. Hg (1015 hPa)
Pressure tendency: 0.04 inches (1.4 hPa) higher than three hours ago
ob: KAOO 232353Z AUTO 16004KT 10SM FEW060 11/08 A2998 RMK AO2 RAB33E50 SLP152 P0000 60000 T01060078 10167 20106 51014
cycle: 0

Station Type Date Time Source
KAOO TAF 2021/09/23 22:48 UTC NOAA

TAF
AMD KAOO 232146Z 2322/2418 26009G17KT P6SM SCT040 OVC045
FM240000 25007KT P6SM SKC
FM241400 26012G20KT P6SM SKC

Example: see airport list